createdAt,value
2023-05-12T00:03:13.562Z,3.97
2023-05-12T00:08:11.943Z,3.25
2023-05-12T00:13:11.526Z,3.40
2023-05-12T00:18:09.801Z,3.47
2023-05-12T00:23:08.083Z,3.70
2023-05-12T00:28:06.476Z,3.58
2023-05-12T00:33:06.254Z,3.70
2023-05-12T00:38:04.419Z,4.07
2023-05-12T00:43:02.614Z,4.53
2023-05-12T00:48:00.789Z,4.13
2023-05-12T00:53:01.937Z,4.72
2023-05-12T00:58:00.381Z,4.80
2023-05-12T01:02:59.663Z,4.70
2023-05-12T01:08:04.336Z,4.90
2023-05-12T01:13:03.130Z,4.07
2023-05-12T01:18:03.401Z,4.40
2023-05-12T01:23:03.520Z,4.20
2023-05-12T01:28:04.190Z,4.20
2023-05-12T01:33:03.275Z,3.67
2023-05-12T01:38:01.597Z,4.63
2023-05-12T01:43:00.333Z,4.47
2023-05-12T01:48:04.357Z,4.50
2023-05-12T01:53:02.650Z,4.00
2023-05-12T01:58:02.980Z,4.05
2023-05-12T02:03:04.061Z,4.35
2023-05-12T02:08:02.291Z,4.70
2023-05-12T02:13:00.440Z,4.68
2023-05-12T02:17:59.506Z,4.68
2023-05-12T02:22:59.992Z,4.35
2023-05-12T02:28:01.497Z,3.67
2023-05-12T02:32:59.885Z,4.20
2023-05-12T02:37:58.097Z,4.28
2023-05-12T02:42:57.764Z,4.47
2023-05-12T02:47:56.295Z,5.78
2023-05-12T02:52:54.612Z,4.80
2023-05-12T02:57:52.920Z,4.70
2023-05-12T03:02:52.576Z,4.38
2023-05-12T03:07:50.856Z,5.00
2023-05-12T03:12:49.079Z,4.78
2023-05-12T03:17:47.243Z,4.53
2023-05-12T03:22:47.127Z,5.10
2023-05-12T03:27:45.486Z,5.03
2023-05-12T03:32:45.259Z,5.55
2023-05-12T03:37:45.527Z,4.72
2023-05-12T03:42:45.153Z,4.80
2023-05-12T03:47:43.490Z,4.47
2023-05-12T03:52:42.270Z,15.77
2023-05-12T03:57:40.498Z,6.75
2023-05-12T04:02:40.040Z,7.60
2023-05-12T04:07:39.522Z,5.75
2023-05-12T04:12:37.723Z,5.18
2023-05-12T04:17:38.862Z,5.32
2023-05-12T04:22:38.915Z,5.82
2023-05-12T04:27:37.126Z,6.13
2023-05-12T04:32:35.381Z,5.60
2023-05-12T04:37:33.781Z,6.18
2023-05-12T04:42:33.789Z,6.25
2023-05-12T04:47:32.248Z,7.18
2023-05-12T04:52:30.693Z,8.35
2023-05-12T04:57:29.245Z,9.52
2023-05-12T05:02:29.762Z,7.35
2023-05-12T05:07:28.461Z,7.35
2023-05-12T05:12:26.843Z,6.88
2023-05-12T05:17:26.141Z,7.05
2023-05-12T05:22:26.358Z,6.40
2023-05-12T05:27:25.118Z,7.68
2023-05-12T05:32:23.507Z,7.00
2023-05-12T05:37:21.919Z,6.18
2023-05-12T05:42:21.538Z,6.68
2023-05-12T05:47:20.076Z,8.27
2023-05-12T05:52:18.931Z,6.45
2023-05-12T05:57:17.313Z,6.78
2023-05-12T06:02:18.001Z,11.00
2023-05-12T06:07:16.280Z,9.25
2023-05-12T06:12:14.636Z,11.13
2023-05-12T06:17:12.785Z,9.25
2023-05-12T06:22:12.277Z,7.40
2023-05-12T06:27:10.421Z,7.32
2023-05-12T06:32:09.281Z,7.35
2023-05-12T06:37:07.799Z,7.88
2023-05-12T06:42:07.815Z,6.70
2023-05-12T06:47:12.393Z,7.32
2023-05-12T06:52:10.591Z,6.10
2023-05-12T06:57:12.335Z,5.95
2023-05-12T07:02:10.492Z,4.68
2023-05-12T07:07:08.674Z,4.80
2023-05-12T07:12:07.330Z,4.95
2023-05-12T07:17:06.862Z,4.50
2023-05-12T07:22:05.215Z,7.10
2023-05-12T07:27:03.709Z,10.15
2023-05-12T07:32:01.908Z,5.80
2023-05-12T07:37:04.033Z,4.03
2023-05-12T07:42:02.320Z,4.32
2023-05-12T07:47:00.566Z,4.00
2023-05-12T07:51:58.757Z,5.40
2023-05-12T07:56:58.272Z,4.00
2023-05-12T08:01:56.505Z,5.40
2023-05-12T08:06:55.043Z,3.70
2023-05-12T08:11:53.338Z,4.10
2023-05-12T08:16:52.923Z,3.53
2023-05-12T08:21:51.485Z,3.45
2023-05-12T08:26:49.670Z,3.97
2023-05-12T08:31:47.856Z,4.40
2023-05-12T08:36:47.480Z,4.40
2023-05-12T08:41:46.416Z,3.25
2023-05-12T08:46:44.683Z,3.55
2023-05-12T08:51:48.088Z,4.10
2023-05-12T09:01:56.082Z,3.20
2023-05-12T09:06:55.956Z,3.63
2023-05-12T09:11:57.556Z,3.47
2023-05-12T09:16:59.833Z,3.08
2023-05-12T09:21:59.182Z,3.45
2023-05-12T09:26:58.713Z,3.30
2023-05-12T09:31:58.473Z,2.97
2023-05-12T09:36:57.326Z,5.90
2023-05-12T09:41:55.778Z,3.22
2023-05-12T09:46:55.396Z,4.03
2023-05-12T09:51:54.035Z,3.92
2023-05-12T09:56:52.764Z,3.58
2023-05-12T10:01:51.325Z,3.25
2023-05-12T10:06:51.028Z,5.10
2023-05-12T10:11:53.797Z,4.90
2023-05-12T10:16:53.912Z,2.97
2023-05-12T10:21:53.504Z,3.38
2023-05-12T10:26:51.755Z,6.35
2023-05-12T10:31:50.701Z,3.60
2023-05-12T10:36:50.333Z,4.22
2023-05-12T10:41:51.068Z,4.15
2023-05-12T10:46:57.980Z,2.95
2023-05-12T10:52:00.922Z,3.22
2023-05-12T10:57:02.250Z,3.05
2023-05-12T11:02:03.103Z,3.65
2023-05-12T11:07:02.933Z,3.10
2023-05-12T11:12:04.468Z,6.68
2023-05-12T11:17:03.092Z,3.13
2023-05-12T11:22:07.207Z,2.65
2023-05-12T11:27:08.486Z,2.88
2023-05-12T11:32:06.894Z,3.45
2023-05-12T11:37:06.696Z,2.63
2023-05-12T11:42:12.699Z,2.67
2023-05-12T11:47:13.584Z,2.60
2023-05-12T11:52:11.819Z,2.70
2023-05-12T11:57:11.338Z,6.30
2023-05-12T12:02:09.495Z,4.70
2023-05-12T12:07:08.085Z,2.67
2023-05-12T12:12:06.902Z,2.88
2023-05-12T12:17:06.534Z,4.57
2023-05-12T12:22:04.866Z,2.72
2023-05-12T12:27:03.413Z,4.28
2023-05-12T12:32:01.924Z,3.58
2023-05-12T12:37:01.531Z,3.75
2023-05-12T12:41:59.986Z,3.03
2023-05-12T12:46:58.165Z,3.53
2023-05-12T12:51:56.822Z,3.50
2023-05-12T12:56:56.696Z,4.97
2023-05-12T13:01:54.877Z,3.08
2023-05-12T13:06:53.375Z,2.75
2023-05-12T13:11:51.640Z,3.30
2023-05-12T13:16:51.190Z,3.47
2023-05-12T13:21:49.674Z,4.70
2023-05-12T13:26:47.928Z,3.45
2023-05-12T13:31:46.650Z,7.22
2023-05-12T13:36:46.247Z,3.40
2023-05-12T13:41:44.466Z,3.53
2023-05-12T13:46:42.774Z,3.55
2023-05-12T13:51:40.994Z,2.90
2023-05-12T13:56:40.600Z,3.10
2023-05-12T14:01:39.383Z,3.03
2023-05-12T14:06:37.637Z,2.90
2023-05-12T14:11:36.152Z,3.85
2023-05-12T14:16:35.721Z,3.95
2023-05-12T14:21:33.892Z,3.35
2023-05-12T14:26:32.440Z,3.00
2023-05-12T14:31:30.651Z,3.15
2023-05-12T14:36:30.192Z,4.13
2023-05-12T14:41:28.395Z,4.38
2023-05-12T14:46:29.865Z,3.03
2023-05-12T14:51:28.199Z,2.42
2023-05-12T14:56:29.670Z,2.92
2023-05-12T15:01:28.243Z,3.63
2023-05-12T15:06:26.433Z,3.22
2023-05-12T15:11:24.662Z,3.47
2023-05-12T15:16:26.217Z,2.75
2023-05-12T15:21:24.444Z,4.05
2023-05-12T15:26:32.964Z,6.32
2023-05-12T15:31:35.193Z,3.08
2023-05-12T15:36:33.434Z,4.55
2023-05-12T15:41:31.699Z,3.05
2023-05-12T15:46:31.021Z,2.40
2023-05-12T15:51:31.438Z,3.00
2023-05-12T15:56:29.640Z,3.40
2023-05-12T16:01:28.088Z,5.20
2023-05-12T16:06:26.381Z,8.25
2023-05-12T16:11:25.949Z,8.55
2023-05-12T16:16:24.458Z,6.10
2023-05-12T16:21:22.776Z,4.93
2023-05-12T16:26:20.917Z,6.55
2023-05-12T16:31:20.487Z,7.88
2023-05-12T16:36:19.768Z,5.15
2023-05-12T16:41:18.568Z,5.30
2023-05-12T16:46:16.743Z,5.50
2023-05-12T16:51:16.289Z,4.20
2023-05-12T16:56:14.740Z,4.85
2023-05-12T17:01:14.288Z,3.35
2023-05-12T17:06:13.435Z,3.42
2023-05-12T17:11:15.452Z,2.92
2023-05-12T17:16:13.762Z,3.65
2023-05-12T17:21:12.388Z,3.78
2023-05-12T17:26:10.531Z,3.70
2023-05-12T17:31:10.638Z,2.92
2023-05-12T17:36:12.854Z,3.13
2023-05-12T17:41:11.760Z,4.18
2023-05-12T17:46:11.371Z,4.20
2023-05-12T17:51:11.477Z,7.53
2023-05-12T17:56:09.726Z,3.60
2023-05-12T18:01:08.131Z,4.90
2023-05-12T18:06:12.710Z,2.90
2023-05-12T18:11:10.932Z,3.10
2023-05-12T18:16:18.190Z,3.35
2023-05-12T18:21:27.382Z,4.13
2023-05-12T18:26:26.914Z,3.10
2023-05-12T18:31:27.849Z,3.13
2023-05-12T18:36:28.376Z,2.97
2023-05-12T18:41:26.572Z,3.40
2023-05-12T18:46:24.765Z,2.38
2023-05-12T18:51:23.002Z,2.55
2023-05-12T18:56:22.805Z,3.47
2023-05-12T19:01:21.303Z,3.13
2023-05-12T19:06:19.972Z,2.10
2023-05-12T19:11:18.315Z,2.50
2023-05-12T19:16:18.171Z,2.55
2023-05-12T19:21:16.523Z,2.40
2023-05-12T19:26:14.687Z,2.75
2023-05-12T19:31:12.909Z,3.35
2023-05-12T19:36:12.478Z,2.83
2023-05-12T19:41:10.837Z,2.95
2023-05-12T19:46:12.393Z,2.55
2023-05-12T19:51:12.063Z,2.65
2023-05-12T19:56:10.306Z,2.72
2023-05-12T20:01:08.562Z,2.55
2023-05-12T20:06:06.881Z,2.45
2023-05-12T20:11:07.069Z,2.25
2023-05-12T20:16:05.885Z,2.25
2023-05-12T20:21:04.156Z,2.10
2023-05-12T20:26:02.350Z,2.67
2023-05-12T20:31:01.999Z,2.33
2023-05-12T20:36:00.350Z,2.53
2023-05-12T20:41:04.174Z,2.85
2023-05-12T20:46:05.837Z,2.10
2023-05-12T20:51:10.888Z,4.75
2023-05-12T20:56:09.155Z,6.80
2023-05-12T21:01:08.648Z,2.83
2023-05-12T21:06:06.981Z,2.10
2023-05-12T21:11:05.173Z,2.25
2023-05-12T21:16:03.997Z,2.28
2023-05-12T21:21:03.523Z,2.28
2023-05-12T21:26:01.663Z,2.42
2023-05-12T21:30:59.805Z,1.85
2023-05-12T21:35:57.955Z,2.17
2023-05-12T21:40:57.489Z,2.90
2023-05-12T21:45:55.703Z,1.80
2023-05-12T21:51:00.341Z,2.22
2023-05-12T21:55:59.909Z,1.95
2023-05-12T22:00:58.420Z,2.17
2023-05-12T22:05:56.902Z,2.15
2023-05-12T22:10:55.046Z,2.78
2023-05-12T22:15:54.594Z,2.10
2023-05-12T22:20:52.817Z,2.20
2023-05-12T22:25:50.961Z,2.30
2023-05-12T22:30:49.130Z,2.15
2023-05-12T22:35:48.638Z,3.15
2023-05-12T22:40:47.688Z,2.45
2023-05-12T22:45:46.026Z,2.10
2023-05-12T22:50:44.153Z,2.13
2023-05-12T22:55:43.690Z,2.53
2023-05-12T23:00:41.920Z,2.40
2023-05-12T23:05:46.503Z,2.00
2023-05-12T23:10:48.732Z,2.25
2023-05-12T23:15:46.941Z,2.38
2023-05-12T23:20:45.282Z,2.30
2023-05-12T23:25:43.429Z,2.45
2023-05-12T23:30:44.247Z,2.65
2023-05-12T23:35:45.312Z,2.83
2023-05-12T23:40:43.467Z,2.10
2023-05-12T23:45:42.987Z,2.65
2023-05-12T23:50:41.155Z,2.20
2023-05-12T23:55:39.308Z,2.45
